Time;durP1;ratioP1;P1;durP2;ratioP2;P2;SDS_P1;SDS_P2;PMS_P1;PMS_P2;Temp;Humidity;BMP_temperature;BMP_pressure;BME280_temperature;BME280_humidity;BME280_pressure;Samples;Min_cycle;Max_cycle;Signal;HPM_P1;HPM_P2
2022/04/19 00:01:18;;;;;;;4.70;2.50;;;7.10;99.90;;;;;;5074981;28;20204;-59
2022/04/19 00:03:45;;;;;;;3.17;2.40;;;7.10;99.90;;;;;;5074591;28;20587;-58
2022/04/19 00:06:12;;;;;;;3.60;2.00;;;7.00;99.90;;;;;;5075266;28;20631;-58
2022/04/19 00:08:38;;;;;;;5.27;2.30;;;6.90;99.90;;;;;;5075131;28;20221;-58
2022/04/19 00:11:05;;;;;;;5.07;2.70;;;6.90;99.90;;;;;;5075119;28;20231;-59
2022/04/19 00:13:33;;;;;;;3.17;2.40;;;6.70;99.90;;;;;;5074783;28;20258;-59
2022/04/19 00:16:00;;;;;;;2.83;2.17;;;6.70;99.90;;;;;;5075053;28;20205;-59
2022/04/19 00:18:27;;;;;;;4.20;3.20;;;6.60;99.90;;;;;;5074582;28;20229;-59
2022/04/19 00:20:54;;;;;;;3.90;2.80;;;6.60;99.90;;;;;;5074733;28;20259;-59
2022/04/19 00:23:21;;;;;;;2.77;2.13;;;6.50;99.90;;;;;;5074559;28;20577;-58
2022/04/19 00:25:50;;;;;;;3.63;2.17;;;6.50;99.90;;;;;;5074788;28;20208;-58
2022/04/19 00:28:17;;;;;;;3.67;2.33;;;6.50;99.90;;;;;;5074726;28;20228;-58
2022/04/19 00:30:46;;;;;;;3.03;2.47;;;6.40;99.90;;;;;;5074472;28;20200;-58
2022/04/19 00:33:13;;;;;;;3.20;2.17;;;6.50;99.90;;;;;;5074491;28;20213;-58
2022/04/19 00:35:40;;;;;;;4.43;2.07;;;6.50;99.90;;;;;;5074551;28;20205;-58
2022/04/19 00:38:07;;;;;;;3.57;2.13;;;6.50;99.90;;;;;;5074247;28;20228;-60
2022/04/19 00:40:34;;;;;;;3.07;2.10;;;6.40;99.90;;;;;;5074316;28;20228;-59
2022/04/19 00:43:02;;;;;;;2.60;1.67;;;6.40;99.90;;;;;;5074105;28;20221;-59
2022/04/19 00:45:31;;;;;;;3.63;2.20;;;6.40;99.90;;;;;;5074097;28;20209;-59
2022/04/19 00:47:59;;;;;;;2.70;1.90;;;6.30;99.90;;;;;;5073996;28;20323;-58
2022/04/19 00:50:26;;;;;;;3.10;2.00;;;6.30;99.90;;;;;;5074318;28;20216;-59
2022/04/19 00:52:53;;;;;;;2.77;2.20;;;6.30;99.90;;;;;;5074270;28;20566;-59
2022/04/19 00:55:20;;;;;;;3.17;2.20;;;6.30;99.90;;;;;;5073884;28;20208;-59
2022/04/19 00:57:47;;;;;;;2.63;2.10;;;6.30;99.90;;;;;;5073792;28;20225;-59
2022/04/19 01:00:15;;;;;;;2.17;1.87;;;6.30;99.90;;;;;;5073807;28;20237;-59
2022/04/19 01:02:42;;;;;;;1.97;1.70;;;6.30;99.90;;;;;;5074049;28;20212;-59
2022/04/19 01:05:11;;;;;;;3.00;2.10;;;6.20;99.90;;;;;;5073435;28;20201;-59
2022/04/19 01:07:39;;;;;;;2.50;2.03;;;6.20;99.90;;;;;;5073724;28;20251;-59
2022/04/19 01:10:07;;;;;;;2.87;1.63;;;6.20;99.90;;;;;;5073791;28;20235;-59
2022/04/19 01:15:19;;;;;;;3.37;2.30;;;6.20;99.90;;;;;;5073611;28;20567;-59
2022/04/19 01:17:47;;;;;;;2.63;1.93;;;6.20;99.90;;;;;;5073417;28;20228;-59
2022/04/19 01:20:15;;;;;;;3.13;2.00;;;6.30;99.90;;;;;;5073649;28;20262;-58
2022/04/19 01:22:43;;;;;;;2.90;2.30;;;6.30;99.90;;;;;;5073574;28;20205;-58
2022/04/19 01:25:11;;;;;;;3.97;2.00;;;6.30;99.90;;;;;;5073173;28;20233;-59
2022/04/19 01:27:38;;;;;;;2.97;2.07;;;6.30;99.90;;;;;;5073510;28;20232;-59
2022/04/19 01:30:08;;;;;;;7.63;2.30;;;6.30;99.90;;;;;;5073887;28;20208;-59
2022/04/19 01:32:36;;;;;;;2.60;2.10;;;6.40;99.90;;;;;;5073512;28;20205;-59
2022/04/19 01:35:11;;;;;;;4.33;2.50;;;6.40;99.90;;;;;;5073036;28;20207;-59
2022/04/19 01:37:39;;;;;;;3.40;2.47;;;6.30;99.90;;;;;;5073123;28;20228;-59
2022/04/19 01:40:17;;;;;;;4.20;2.20;;;6.30;99.90;;;;;;5073715;28;20205;-59
2022/04/19 01:42:45;;;;;;;2.90;2.10;;;6.30;99.90;;;;;;5073261;28;20219;-59
2022/04/19 01:45:12;;;;;;;3.57;1.97;;;6.30;99.90;;;;;;5072751;28;20225;-59
2022/04/19 01:47:39;;;;;;;4.13;2.30;;;6.30;99.90;;;;;;5073444;28;20240;-58
2022/04/19 01:50:09;;;;;;;2.37;1.93;;;6.30;99.90;;;;;;5073073;28;20209;-58
2022/04/19 01:52:36;;;;;;;1.97;1.77;;;6.20;99.90;;;;;;5073070;28;20200;-58
2022/04/19 01:55:03;;;;;;;3.50;1.93;;;6.10;99.90;;;;;;5072925;28;20272;-58
2022/04/19 01:57:31;;;;;;;3.50;1.80;;;6.10;99.90;;;;;;5072945;28;20221;-58
2022/04/19 01:59:58;;;;;;;2.97;1.97;;;6.10;99.90;;;;;;5073040;28;20201;-58
2022/04/19 02:02:24;;;;;;;2.40;1.70;;;6.10;99.90;;;;;;5072888;28;20580;-58
2022/04/19 02:04:51;;;;;;;2.40;1.87;;;6.10;99.90;;;;;;5072560;28;20251;-58
2022/04/19 02:07:18;;;;;;;3.27;1.97;;;6.00;99.90;;;;;;5072681;28;20248;-58
2022/04/19 02:09:45;;;;;;;2.17;1.90;;;5.90;99.90;;;;;;5072694;28;20209;-58
2022/04/19 02:12:11;;;;;;;2.97;1.90;;;5.90;99.90;;;;;;5072539;28;20209;-58
2022/04/19 02:14:41;;;;;;;2.87;1.80;;;5.80;99.90;;;;;;5072271;28;20729;-58
2022/04/19 02:17:09;;;;;;;2.30;1.93;;;5.80;99.90;;;;;;5072370;28;20229;-58
2022/04/19 02:19:35;;;;;;;5.07;1.97;;;5.90;99.90;;;;;;5072536;28;20572;-58
2022/04/19 02:22:02;;;;;;;2.23;1.90;;;5.90;99.90;;;;;;5072776;28;20232;-58
2022/04/19 02:24:29;;;;;;;4.53;1.90;;;5.90;99.90;;;;;;5072197;28;20229;-58
2022/04/19 02:26:57;;;;;;;1.63;1.50;;;6.00;99.90;;;;;;5072306;28;20287;-58
2022/04/19 02:29:25;;;;;;;2.20;1.97;;;5.90;99.90;;;;;;5073098;28;20220;-60
2022/04/19 02:31:53;;;;;;;2.43;1.90;;;5.90;99.90;;;;;;5072802;28;20677;-58
2022/04/19 02:34:20;;;;;;;2.80;1.93;;;5.90;99.90;;;;;;5072242;28;20205;-58
2022/04/19 02:36:47;;;;;;;4.87;2.00;;;6.00;99.90;;;;;;5072707;28;20201;-58
2022/04/19 02:39:14;;;;;;;4.00;2.10;;;5.90;99.90;;;;;;5072192;28;20614;-58
2022/04/19 02:41:40;;;;;;;2.83;1.77;;;5.80;99.90;;;;;;5072272;28;20209;-58
2022/04/19 02:44:08;;;;;;;3.27;1.80;;;5.80;99.90;;;;;;5071809;28;20224;-58
2022/04/19 02:46:35;;;;;;;2.30;1.83;;;5.80;99.90;;;;;;5072307;28;20213;-58
2022/04/19 02:49:04;;;;;;;2.83;2.10;;;5.80;99.90;;;;;;5072089;28;20236;-58
2022/04/19 02:51:31;;;;;;;2.47;1.87;;;5.80;99.90;;;;;;5072223;28;20749;-58
2022/04/19 02:53:58;;;;;;;3.63;1.80;;;5.80;99.90;;;;;;5071947;28;20237;-58
2022/04/19 02:56:25;;;;;;;3.47;2.20;;;5.80;99.90;;;;;;5072207;28;20230;-58
2022/04/19 02:58:52;;;;;;;3.50;1.87;;;5.80;99.90;;;;;;5071861;28;20233;-58
2022/04/19 03:01:19;;;;;;;2.43;1.80;;;5.70;99.90;;;;;;5072144;28;20205;-58
2022/04/19 03:03:46;;;;;;;2.23;1.97;;;5.60;99.90;;;;;;5072005;28;20251;-58
2022/04/19 03:06:14;;;;;;;2.90;1.90;;;5.60;99.90;;;;;;5072021;28;20213;-58
2022/04/19 03:08:41;;;;;;;2.17;1.97;;;5.60;99.90;;;;;;5071829;28;20224;-58
2022/04/19 03:11:08;;;;;;;2.33;1.80;;;5.60;99.90;;;;;;5071891;28;20208;-58
2022/04/19 03:13:36;;;;;;;3.30;2.37;;;5.60;99.90;;;;;;5071721;28;20232;-60
2022/04/19 03:16:03;;;;;;;2.70;2.07;;;5.40;99.90;;;;;;5071976;28;20664;-58
2022/04/19 03:18:30;;;;;;;3.70;1.87;;;5.30;99.90;;;;;;5071996;28;20233;-58
2022/04/19 03:20:57;;;;;;;2.83;1.80;;;5.20;99.90;;;;;;5071967;28;20200;-58
2022/04/19 03:28:54;;;;;;;3.43;1.80;;;5.00;99.90;;;;;;5071749;28;20226;-58
2022/04/19 03:31:22;;;;;;;4.43;2.00;;;4.90;99.90;;;;;;5071774;28;20664;-58
2022/04/19 03:33:52;;;;;;;2.00;1.80;;;4.90;99.90;;;;;;5075662;28;20205;-58
2022/04/19 03:36:19;;;;;;;3.50;2.30;;;4.80;99.90;;;;;;5075892;28;20244;-58
2022/04/19 03:38:47;;;;;;;4.87;2.23;;;4.80;99.90;;;;;;5075758;28;20233;-58
2022/04/19 03:41:14;;;;;;;3.43;2.10;;;4.80;99.90;;;;;;5075681;28;20227;-59
2022/04/19 03:43:41;;;;;;;3.37;2.20;;;4.80;99.90;;;;;;5075368;28;20205;-59
2022/04/19 03:46:09;;;;;;;3.40;2.30;;;4.70;99.90;;;;;;5075369;28;20201;-58
2022/04/19 03:48:36;;;;;;;6.50;2.37;;;4.60;99.90;;;;;;5075608;28;20271;-59
2022/04/19 03:51:04;;;;;;;3.43;2.27;;;4.80;99.90;;;;;;5075424;28;20295;-59
2022/04/19 03:53:30;;;;;;;3.93;2.47;;;4.90;99.90;;;;;;5075319;28;20670;-58
2022/04/19 03:55:59;;;;;;;2.43;2.00;;;5.00;99.90;;;;;;5075410;28;20197;-59
2022/04/19 03:58:26;;;;;;;2.87;2.00;;;5.00;99.90;;;;;;5075358;28;20314;-59
2022/04/19 04:00:53;;;;;;;2.10;1.83;;;5.00;99.90;;;;;;5075297;28;20282;-58
2022/04/19 04:03:20;;;;;;;2.60;1.90;;;4.90;99.90;;;;;;5074981;28;20232;-59
2022/04/19 04:05:47;;;;;;;2.73;1.97;;;5.00;99.90;;;;;;5075221;28;20229;-58
2022/04/19 04:08:14;;;;;;;5.90;1.97;;;5.00;99.90;;;;;;5075199;28;20233;-59
2022/04/19 04:10:40;;;;;;;3.33;1.90;;;5.00;99.90;;;;;;5075272;28;20205;-58
2022/04/19 04:13:09;;;;;;;3.53;2.30;;;5.00;99.90;;;;;;5074966;28;20201;-58
2022/04/19 04:15:36;;;;;;;3.07;2.00;;;5.10;99.90;;;;;;5074764;28;20205;-58
2022/04/19 04:18:02;;;;;;;2.80;2.07;;;5.10;99.90;;;;;;5074770;28;20316;-59
2022/04/19 04:20:29;;;;;;;5.07;2.40;;;5.10;99.90;;;;;;5075093;28;20205;-59
2022/04/19 04:22:56;;;;;;;3.57;2.70;;;5.10;99.90;;;;;;5075029;28;20209;-59
2022/04/19 04:25:23;;;;;;;4.93;2.80;;;5.10;99.90;;;;;;5074585;28;20456;-59
2022/04/19 04:27:50;;;;;;;4.83;3.10;;;5.10;99.90;;;;;;5074742;28;20232;-58
2022/04/19 04:30:18;;;;;;;2.73;2.30;;;5.20;99.90;;;;;;5074656;28;20208;-59
2022/04/19 04:32:45;;;;;;;6.90;2.60;;;5.20;99.90;;;;;;5075162;28;20219;-59
2022/04/19 04:35:12;;;;;;;5.13;3.27;;;5.20;99.90;;;;;;5074366;28;20548;-58
2022/04/19 04:37:38;;;;;;;3.80;2.57;;;5.20;99.90;;;;;;5074377;28;20232;-58
2022/04/19 04:40:06;;;;;;;3.20;2.37;;;5.20;99.90;;;;;;5074512;28;20209;-58
2022/04/19 04:42:33;;;;;;;3.37;2.67;;;5.30;99.90;;;;;;5074295;28;20212;-58
2022/04/19 04:45:00;;;;;;;3.43;2.40;;;5.30;99.90;;;;;;5073950;28;20217;-58
2022/04/19 04:50:13;;;;;;;4.50;2.93;;;5.40;99.90;;;;;;5074507;28;20212;-57
2022/04/19 04:52:40;;;;;;;3.77;2.13;;;5.50;99.90;;;;;;5074522;28;20205;-58
2022/04/19 04:55:08;;;;;;;7.07;2.53;;;5.60;99.90;;;;;;5074053;28;20775;-58
2022/04/19 04:57:35;;;;;;;3.33;2.30;;;5.70;99.90;;;;;;5074052;28;20236;-58
2022/04/19 05:00:02;;;;;;;2.93;2.23;;;5.80;99.90;;;;;;5074479;28;20271;-58
2022/04/19 05:02:30;;;;;;;5.73;2.67;;;5.90;99.90;;;;;;5074274;28;20212;-58
2022/04/19 05:04:57;;;;;;;3.97;2.67;;;6.00;99.90;;;;;;5074003;28;20592;-58
2022/04/19 05:07:24;;;;;;;4.10;2.30;;;6.10;99.90;;;;;;5073974;28;20302;-58
2022/04/19 05:09:50;;;;;;;3.07;2.30;;;6.20;99.90;;;;;;5074027;28;20209;-58
2022/04/19 05:12:17;;;;;;;3.10;2.30;;;6.30;99.90;;;;;;5073989;28;20213;-58
2022/04/19 05:14:44;;;;;;;3.40;2.43;;;6.50;99.90;;;;;;5073921;28;20198;-58
2022/04/19 05:17:10;;;;;;;6.93;2.40;;;6.60;99.90;;;;;;5073770;28;20225;-58
2022/04/19 05:19:39;;;;;;;8.63;2.50;;;6.70;99.90;;;;;;5073981;28;20568;-58
2022/04/19 05:22:05;;;;;;;3.57;2.13;;;6.70;99.90;;;;;;5074021;28;20209;-58
2022/04/19 05:24:32;;;;;;;3.17;2.20;;;6.80;99.90;;;;;;5073329;28;20220;-58
2022/04/19 05:26:59;;;;;;;5.27;2.10;;;6.90;99.90;;;;;;5073645;28;20274;-58
2022/04/19 05:29:26;;;;;;;4.30;2.10;;;7.00;99.90;;;;;;5073921;28;20235;-58
2022/04/19 05:31:52;;;;;;;6.43;2.50;;;7.20;99.90;;;;;;5073740;28;20205;-58
2022/04/19 05:34:19;;;;;;;4.17;2.53;;;7.30;99.90;;;;;;5073542;28;20211;-58
2022/04/19 05:36:47;;;;;;;2.63;1.80;;;7.40;99.90;;;;;;5073625;28;20219;-58
2022/04/19 05:39:14;;;;;;;6.90;3.87;;;7.50;99.90;;;;;;5073317;28;20205;-58
2022/04/19 05:41:41;;;;;;;3.90;2.60;;;7.70;99.90;;;;;;5073586;28;20209;-58
2022/04/19 05:44:09;;;;;;;13.60;7.20;;;8.70;99.90;;;;;;5073220;28;20201;-58
2022/04/19 05:46:37;;;;;;;4.47;2.23;;;10.80;98.60;;;;;;5073040;28;20275;-58
2022/04/19 05:49:05;;;;;;;3.67;2.30;;;12.80;95.00;;;;;;5073133;28;20237;-58
2022/04/19 05:51:32;;;;;;;2.87;2.10;;;14.60;92.00;;;;;;5073245;28;20232;-58
2022/04/19 05:54:00;;;;;;;5.43;2.83;;;16.00;87.50;;;;;;5072555;28;20205;-58
2022/04/19 05:56:27;;;;;;;6.20;2.67;;;17.20;84.60;;;;;;5072476;28;20612;-58
2022/04/19 05:58:53;;;;;;;4.63;3.47;;;18.40;77.30;;;;;;5073310;28;20248;-58
2022/04/19 06:01:20;;;;;;;7.63;6.80;;;19.40;73.20;;;;;;5072937;28;20664;-58
2022/04/19 06:06:32;;;;;;;2.50;2.17;;;21.20;67.10;;;;;;5072921;28;20227;-60
2022/04/19 06:09:00;;;;;;;5.75;2.55;;;22.10;63.80;;;;;;5072844;28;20264;-58
2022/04/19 06:11:26;;;;;;;3.85;2.20;;;22.90;61.30;;;;;;5072961;28;20209;-59
2022/04/19 06:13:53;;;;;;;5.05;2.10;;;23.70;57.80;;;;;;5072216;28;20209;-59
2022/04/19 06:16:20;;;;;;;5.72;2.67;;;23.90;57.30;;;;;;5072656;28;20212;-59
2022/04/19 06:18:46;;;;;;;5.55;2.67;;;24.20;55.50;;;;;;5072393;28;20224;-59
2022/04/19 06:21:13;;;;;;;4.13;2.70;;;24.70;54.60;;;;;;5072468;28;20629;-59
2022/04/19 06:23:40;;;;;;;4.95;3.00;;;25.40;53.90;;;;;;5072428;28;20262;-59
2022/04/19 06:26:07;;;;;;;4.22;2.80;;;26.20;52.70;;;;;;5072373;28;20229;-57
2022/04/19 06:28:34;;;;;;;5.07;2.40;;;26.80;49.60;;;;;;5072194;28;20229;-59
2022/04/19 06:31:01;;;;;;;3.72;2.30;;;26.50;48.80;;;;;;5072414;28;20231;-58
2022/04/19 06:33:27;;;;;;;5.72;2.42;;;24.80;50.90;;;;;;5072167;28;20208;-58
2022/04/19 06:35:54;;;;;;;5.00;2.28;;;22.60;54.10;;;;;;5072364;28;20254;-57
2022/04/19 06:38:21;;;;;;;7.07;4.30;;;22.40;54.90;;;;;;5072462;28;20232;-58
2022/04/19 06:40:48;;;;;;;3.97;2.33;;;23.10;55.50;;;;;;5072075;28;20215;-58
2022/04/19 06:43:16;;;;;;;5.43;2.63;;;24.30;54.30;;;;;;5072138;28;20628;-59
2022/04/19 06:45:43;;;;;;;5.13;2.40;;;25.60;52.80;;;;;;5071664;28;20664;-59
2022/04/19 06:48:10;;;;;;;4.32;2.40;;;26.80;50.50;;;;;;5071855;28;20232;-59
2022/04/19 06:50:37;;;;;;;3.95;2.40;;;28.00;48.00;;;;;;5071848;28;20295;-59
2022/04/19 06:53:04;;;;;;;4.22;2.33;;;28.90;46.20;;;;;;5072352;28;20287;-59
2022/04/19 06:55:31;;;;;;;4.53;2.30;;;29.80;44.80;;;;;;5072066;28;20292;-58
2022/04/19 06:57:57;;;;;;;11.25;6.93;;;30.50;44.00;;;;;;5072041;28;20663;-58
2022/04/19 07:00:25;;;;;;;4.32;2.20;;;31.30;42.80;;;;;;5071989;28;20211;-58
2022/04/19 07:02:52;;;;;;;2.50;1.95;;;31.80;41.00;;;;;;5072276;28;20212;-58
2022/04/19 07:05:19;;;;;;;2.78;2.15;;;32.20;39.50;;;;;;5071813;28;20224;-58
2022/04/19 07:07:46;;;;;;;3.05;1.98;;;32.00;37.40;;;;;;5071584;28;20651;-58
2022/04/19 07:10:13;;;;;;;4.25;2.05;;;31.60;37.50;;;;;;5071684;28;20211;-58
2022/04/19 07:12:40;;;;;;;3.05;2.20;;;29.50;40.30;;;;;;5071751;28;20730;-57
2022/04/19 07:15:08;;;;;;;4.60;2.72;;;28.70;42.40;;;;;;5071757;28;20212;-58
2022/04/19 07:17:39;;;;;;;3.83;2.20;;;28.90;42.70;;;;;;5071814;28;20307;-58
2022/04/19 07:28:20;;;;;;;3.88;2.40;;;25.10;48.00;;;;;;5071784;28;20255;-57
2022/04/19 07:30:47;;;;;;;3.03;2.10;;;25.10;49.00;;;;;;5071666;28;20216;-58
2022/04/19 07:33:16;;;;;;;5.53;2.40;;;26.40;46.50;;;;;;5072053;28;20214;-58
2022/04/19 07:35:43;;;;;;;3.78;2.60;;;26.40;45.70;;;;;;5071346;28;20208;-58
2022/04/19 07:38:10;;;;;;;2.20;2.00;;;26.00;46.40;;;;;;5071656;28;20228;-60
2022/04/19 07:40:37;;;;;;;4.68;2.15;;;27.10;46.10;;;;;;5071722;28;20308;-58
2022/04/19 07:43:04;;;;;;;3.00;2.35;;;27.60;44.20;;;;;;5071773;28;20212;-58
2022/04/19 07:45:31;;;;;;;3.33;2.47;;;27.70;44.10;;;;;;5071276;28;20316;-59
2022/04/19 07:47:58;;;;;;;3.85;2.60;;;28.70;42.50;;;;;;5094345;22;20232;-56
2022/04/19 07:50:26;;;;;;;3.65;2.60;;;28.00;43.30;;;;;;5071411;28;20254;-56
2022/04/19 07:52:53;;;;;;;3.10;2.72;;;27.00;44.80;;;;;;5071815;28;20282;-56
2022/04/19 07:55:20;;;;;;;3.85;3.05;;;27.50;44.10;;;;;;5071481;28;20290;-56
2022/04/19 07:57:46;;;;;;;4.65;3.03;;;26.50;44.90;;;;;;5071674;28;20264;-56
2022/04/19 08:00:14;;;;;;;4.57;3.00;;;26.90;45.10;;;;;;5071684;28;20211;-56
2022/04/19 08:02:41;;;;;;;5.65;2.78;;;28.10;43.80;;;;;;5071804;28;20296;-55
2022/04/19 08:05:09;;;;;;;3.80;2.97;;;29.40;41.50;;;;;;5071520;28;20308;-56
2022/04/19 08:07:37;;;;;;;4.63;3.05;;;28.60;42.20;;;;;;5071350;28;20302;-56
2022/04/19 08:10:05;;;;;;;2.95;2.58;;;28.20;42.60;;;;;;5071546;28;20251;-56
2022/04/19 08:12:32;;;;;;;4.57;3.03;;;28.90;41.40;;;;;;5071624;28;20307;-56
2022/04/19 08:14:59;;;;;;;3.83;2.80;;;29.30;41.00;;;;;;5071318;28;20274;-56
2022/04/19 08:17:26;;;;;;;6.15;3.15;;;28.90;41.60;;;;;;5071621;28;20366;-56
2022/04/19 08:19:56;;;;;;;3.40;2.47;;;27.60;42.80;;;;;;5074959;28;20292;-56
2022/04/19 08:22:23;;;;;;;5.72;3.40;;;25.50;44.80;;;;;;5075332;28;20235;-55
2022/04/19 08:24:51;;;;;;;5.10;3.00;;;23.70;46.40;;;;;;5074823;28;20205;-56
2022/04/19 08:27:18;;;;;;;3.60;3.05;;;22.30;48.40;;;;;;5074876;28;20225;-55
2022/04/19 08:29:44;;;;;;;5.20;3.30;;;21.10;49.90;;;;;;5075340;28;20259;-55
2022/04/19 08:32:11;;;;;;;4.63;3.30;;;20.30;50.80;;;;;;5075658;28;20274;-58
2022/04/19 08:34:38;;;;;;;4.20;3.47;;;19.60;52.50;;;;;;5075149;28;20207;-58
2022/04/19 08:37:05;;;;;;;5.40;3.30;;;18.90;52.90;;;;;;5074772;28;20619;-58
2022/04/19 08:39:32;;;;;;;3.67;3.03;;;18.40;54.40;;;;;;5072723;28;20197;-58
2022/04/19 08:42:00;;;;;;;3.72;2.90;;;18.00;55.50;;;;;;5073922;28;20583;-58
2022/04/19 08:44:27;;;;;;;4.55;2.95;;;17.60;56.80;;;;;;5074092;28;20668;-58
2022/04/19 08:46:55;;;;;;;3.78;3.13;;;17.20;56.60;;;;;;5074107;28;20696;-59
2022/04/19 08:49:22;;;;;;;4.23;3.37;;;17.00;57.00;;;;;;5074236;28;20324;-64
2022/04/19 08:51:49;;;;;;;4.35;3.08;;;17.10;58.10;;;;;;5074423;28;20330;-58
2022/04/19 08:59:46;;;;;;;4.18;2.90;;;17.40;57.40;;;;;;5074822;28;20211;-58
2022/04/19 09:02:20;;;;;;;3.00;2.53;;;17.50;58.20;;;;;;5074570;28;20263;-58
2022/04/19 09:04:47;;;;;;;4.70;2.97;;;17.60;58.80;;;;;;5074056;28;20212;-58
2022/04/19 09:07:14;;;;;;;4.05;3.38;;;17.90;58.30;;;;;;5074378;28;20229;-58
2022/04/19 09:09:41;;;;;;;3.60;3.03;;;18.00;58.30;;;;;;5073868;28;20205;-59
2022/04/19 09:12:11;;;;;;;4.10;2.85;;;18.20;58.60;;;;;;5073982;28;20280;-60
2022/04/19 09:14:54;;;;;;;4.47;2.75;;;18.40;57.00;;;;;;5073672;28;20299;-58
2022/04/19 09:17:31;;;;;;;3.72;2.88;;;18.50;55.80;;;;;;5073928;28;20602;-58
2022/04/19 09:20:12;;;;;;;4.85;3.42;;;18.30;55.50;;;;;;5073703;28;20755;-59
2022/04/19 09:22:39;;;;;;;4.15;3.30;;;18.30;56.20;;;;;;5074108;28;20208;-59
2022/04/19 09:25:20;;;;;;;5.97;3.10;;;18.50;56.70;;;;;;5073698;28;20208;-58
2022/04/19 09:27:49;;;;;;;3.17;2.88;;;18.70;56.30;;;;;;5073498;28;20784;-60
2022/04/19 09:30:18;;;;;;;3.65;3.00;;;18.90;55.30;;;;;;5072408;28;20672;-59
2022/04/19 09:33:07;;;;;;;4.18;2.90;;;19.10;54.70;;;;;;5073502;28;20611;-59
2022/04/19 09:35:36;;;;;;;4.22;2.80;;;19.10;54.70;;;;;;5073493;28;20201;-58
2022/04/19 09:38:03;;;;;;;5.45;3.58;;;19.10;55.20;;;;;;5073498;28;20468;-58
2022/04/19 09:40:32;;;;;;;4.60;3.28;;;19.10;56.30;;;;;;5073641;28;20212;-58
2022/04/19 09:43:10;;;;;;;4.63;3.20;;;19.00;56.30;;;;;;5072993;28;20703;-59
2022/04/19 09:45:56;;;;;;;3.88;2.97;;;18.80;54.80;;;;;;5070204;28;20676;-57
2022/04/19 09:48:24;;;;;;;4.88;3.13;;;18.40;55.90;;;;;;5072577;28;20499;-57
2022/04/19 09:50:54;;;;;;;4.43;2.80;;;18.30;56.50;;;;;;5055397;28;20197;-59
2022/04/19 09:53:23;;;;;;;5.93;3.63;;;18.40;57.20;;;;;;5072849;28;20201;-57
2022/04/19 09:55:51;;;;;;;6.07;3.20;;;18.60;57.70;;;;;;5072435;28;20212;-58
2022/04/19 09:58:20;;;;;;;3.65;3.10;;;18.70;57.50;;;;;;5073082;28;20236;-58
2022/04/19 10:00:48;;;;;;;5.25;3.20;;;18.70;57.20;;;;;;5072511;28;20205;-58
2022/04/19 10:08:59;;;;;;;5.07;3.40;;;18.90;57.00;;;;;;5072475;28;20260;-58
2022/04/19 10:11:27;;;;;;;4.30;3.47;;;18.80;54.30;;;;;;5072815;28;20208;-59
2022/04/19 10:13:55;;;;;;;3.58;2.97;;;18.60;54.70;;;;;;5072862;28;20304;-58
2022/04/19 10:16:23;;;;;;;4.95;3.40;;;18.40;54.00;;;;;;5072505;28;20667;-58
2022/04/19 10:18:49;;;;;;;4.35;3.53;;;18.40;54.10;;;;;;5072405;28;20592;-58
2022/04/19 10:21:19;;;;;;;5.57;3.65;;;18.30;54.10;;;;;;5072809;28;20216;-59
2022/04/19 10:23:46;;;;;;;4.50;3.88;;;18.20;54.70;;;;;;5073056;28;20621;-58
2022/04/19 10:26:19;;;;;;;5.43;4.25;;;18.00;54.50;;;;;;5071954;28;20593;-58
2022/04/19 10:28:47;;;;;;;5.35;3.65;;;18.10;54.80;;;;;;5072054;28;20298;-59
2022/04/19 10:31:25;;;;;;;4.65;3.38;;;18.20;54.50;;;;;;5072501;28;20208;-58
2022/04/19 10:33:53;;;;;;;3.63;3.25;;;18.50;55.00;;;;;;5072130;28;20204;-58
2022/04/19 10:36:22;;;;;;;7.78;4.18;;;18.60;53.70;;;;;;5071914;28;20197;-58
2022/04/19 10:39:20;;;;;;;5.80;4.50;;;18.70;54.00;;;;;;5072272;28;20232;-59
2022/04/19 10:41:48;;;;;;;6.93;4.60;;;18.70;53.70;;;;;;5072114;28;20213;-59
2022/04/19 10:44:25;;;;;;;7.68;4.70;;;18.80;53.90;;;;;;5071676;28;20205;-59
2022/04/19 10:47:15;;;;;;;7.70;3.85;;;19.00;53.80;;;;;;5072505;28;20224;-58
2022/04/19 10:49:57;;;;;;;5.55;3.72;;;19.10;53.50;;;;;;5072532;28;20204;-58
2022/04/19 10:52:46;;;;;;;8.52;4.25;;;19.10;52.90;;;;;;5072282;28;20251;-59
2022/04/19 10:55:18;;;;;;;6.07;4.40;;;19.20;52.20;;;;;;5071691;28;20212;-58
2022/04/19 10:58:09;;;;;;;4.93;3.70;;;19.00;52.90;;;;;;5071727;28;20658;-58
2022/04/19 11:00:43;;;;;;;6.32;4.05;;;18.80;53.40;;;;;;5071789;28;20234;-59
2022/04/19 11:03:13;;;;;;;4.63;3.65;;;18.90;53.30;;;;;;5071908;28;20642;-58
2022/04/19 11:05:44;;;;;;;4.13;3.67;;;19.10;51.40;;;;;;5071543;28;20742;-58
2022/04/19 11:08:33;;;;;;;4.95;3.63;;;19.10;50.60;;;;;;5071555;28;20229;-58
2022/04/19 11:11:22;;;;;;;6.13;3.80;;;19.30;50.20;;;;;;5071541;28;20649;-58
2022/04/19 11:14:20;;;;;;;5.85;3.72;;;19.40;50.10;;;;;;5071499;28;20205;-58
2022/04/19 11:16:53;;;;;;;5.25;3.97;;;19.60;50.00;;;;;;5009282;28;20205;-58
2022/04/19 11:19:23;;;;;;;3.88;3.47;;;19.80;50.10;;;;;;5059809;28;20299;-58
2022/04/19 11:21:54;;;;;;;8.20;3.90;;;19.90;50.10;;;;;;5072696;28;20247;-58
2022/04/19 11:24:58;;;;;;;6.43;4.50;;;19.90;49.60;;;;;;5072357;28;20211;-58
2022/04/19 11:27:25;;;;;;;4.35;3.58;;;20.10;49.50;;;;;;5072020;28;20225;-58
2022/04/19 11:29:52;;;;;;;4.82;3.40;;;20.20;49.20;;;;;;5072815;28;20204;-58
2022/04/19 11:32:23;;;;;;;4.95;3.60;;;19.90;49.20;;;;;;5071649;28;20576;-58
2022/04/19 11:35:04;;;;;;;4.47;3.90;;;19.80;49.20;;;;;;5072190;28;20205;-64
2022/04/19 11:37:31;;;;;;;5.40;3.75;;;19.60;49.60;;;;;;5072263;28;20638;-58
2022/04/19 11:48:28;;;;;;;6.30;3.97;;;19.90;49.80;;;;;;5071296;28;20231;-59
2022/04/19 11:51:06;;;;;;;6.15;4.35;;;19.80;50.30;;;;;;5071837;28;20274;-59
2022/04/19 11:53:33;;;;;;;5.60;3.90;;;20.00;50.00;;;;;;5073342;28;20201;-58
2022/04/19 11:56:00;;;;;;;6.68;4.22;;;20.00;49.60;;;;;;5075080;28;20208;-58
2022/04/19 11:58:27;;;;;;;5.88;4.40;;;20.00;49.60;;;;;;5075105;28;20312;-59
2022/04/19 12:00:58;;;;;;;7.15;4.18;;;20.00;49.70;;;;;;5075229;28;20660;-58
2022/04/19 12:03:26;;;;;;;5.07;3.50;;;20.10;50.40;;;;;;5075192;28;20282;-58
2022/04/19 12:05:54;;;;;;;3.92;2.78;;;20.10;49.70;;;;;;5074383;28;20799;-59
2022/04/19 12:08:33;;;;;;;4.88;3.15;;;20.00;48.80;;;;;;5074939;28;20323;-58
2022/04/19 12:11:01;;;;;;;3.13;2.75;;;19.60;49.20;;;;;;5075126;28;20204;-59
2022/04/19 12:13:28;;;;;;;4.38;2.80;;;19.50;50.40;;;;;;5075398;28;20295;-58
2022/04/19 12:15:55;;;;;;;4.07;3.40;;;19.40;50.30;;;;;;5074621;28;20212;-58
2022/04/19 12:18:33;;;;;;;3.78;2.97;;;19.40;49.50;;;;;;5074792;28;20271;-58
2022/04/19 12:21:00;;;;;;;5.72;3.00;;;19.50;49.40;;;;;;5074839;28;20208;-59
2022/04/19 12:23:27;;;;;;;3.92;3.10;;;19.40;49.30;;;;;;5074621;28;20259;-58
2022/04/19 12:26:03;;;;;;;3.65;3.10;;;19.40;50.00;;;;;;5074657;28;20204;-59
2022/04/19 12:28:38;;;;;;;6.47;2.97;;;19.40;49.40;;;;;;5074545;28;20239;-58
2022/04/19 12:31:05;;;;;;;4.00;2.75;;;19.50;49.80;;;;;;5074590;28;20212;-58
2022/04/19 12:33:31;;;;;;;3.10;2.80;;;19.70;49.20;;;;;;5074609;28;20205;-59
2022/04/19 12:35:58;;;;;;;5.47;2.47;;;19.90;49.50;;;;;;5073989;28;20208;-59
2022/04/19 12:38:30;;;;;;;5.30;3.05;;;20.00;48.50;;;;;;5074507;28;20407;-59
2022/04/19 12:40:56;;;;;;;3.70;3.08;;;19.80;49.60;;;;;;5074657;28;20205;-58
2022/04/19 12:43:47;;;;;;;5.53;3.28;;;19.70;49.30;;;;;;5074535;28;20204;-59
2022/04/19 12:46:14;;;;;;;4.22;2.72;;;19.80;49.20;;;;;;5073972;28;20205;-59
2022/04/19 12:48:51;;;;;;;3.70;2.50;;;19.80;48.80;;;;;;5074040;28;20247;-59
2022/04/19 12:51:22;;;;;;;4.72;2.45;;;19.70;49.10;;;;;;5074420;28;20243;-58
2022/04/19 12:54:01;;;;;;;3.35;2.58;;;19.70;48.60;;;;;;5074728;28;20209;-58
2022/04/19 12:56:28;;;;;;;3.38;2.58;;;19.80;48.50;;;;;;5073913;28;20220;-59
2022/04/19 12:58:56;;;;;;;2.85;2.50;;;19.90;48.00;;;;;;5074069;28;20270;-59
2022/04/19 13:01:22;;;;;;;3.38;2.88;;;20.00;48.30;;;;;;5074206;28;20208;-59
2022/04/19 13:03:49;;;;;;;4.05;2.60;;;19.90;47.90;;;;;;5073737;28;20326;-58
2022/04/19 13:14:30;;;;;;;3.05;2.60;;;19.80;48.00;;;;;;5073837;28;20272;-59
2022/04/19 13:16:57;;;;;;;4.35;2.55;;;19.50;48.30;;;;;;5073826;28;20197;-59
2022/04/19 13:19:24;;;;;;;3.88;2.47;;;19.40;48.00;;;;;;5073644;28;20236;-59
2022/04/19 13:21:50;;;;;;;2.90;2.05;;;19.40;48.40;;;;;;5073616;28;20211;-59
2022/04/19 13:24:17;;;;;;;3.47;2.08;;;19.40;47.70;;;;;;5073429;28;20208;-59
2022/04/19 13:26:44;;;;;;;5.82;2.45;;;19.60;48.00;;;;;;5073589;28;20231;-59
2022/04/19 13:29:11;;;;;;;5.85;2.50;;;19.80;47.90;;;;;;5073450;28;20225;-59
2022/04/19 13:31:39;;;;;;;3.83;2.60;;;19.80;48.50;;;;;;5073440;28;20205;-58
2022/04/19 13:34:06;;;;;;;3.20;2.53;;;19.90;48.30;;;;;;5073548;28;20213;-58
2022/04/19 13:36:32;;;;;;;7.82;2.70;;;19.90;47.20;;;;;;5073478;28;20212;-61
2022/04/19 13:38:59;;;;;;;3.65;2.58;;;20.10;47.60;;;;;;5073467;28;20225;-60
2022/04/19 13:41:26;;;;;;;7.05;2.60;;;20.20;47.50;;;;;;5073191;28;20217;-62
2022/04/19 13:43:53;;;;;;;2.33;2.13;;;20.30;48.20;;;;;;5073329;28;20291;-60
2022/04/19 13:46:19;;;;;;;2.67;2.33;;;20.30;47.30;;;;;;5072959;28;20296;-60
2022/04/19 13:48:47;;;;;;;5.88;2.53;;;20.20;46.80;;;;;;5096541;22;20275;-59